PGT86CN EGBB-LTFJ
Flight info
| Callsign | PGT86CN |
|---|---|
| Flight time | N/A |
| Altitude | 35000 |
| Route | DTY P166 BANTO P155 SIVDA P137 REDFA L620 TACHA DCT TIVUN DCT ESAMA DCT OSBIT DCT BOREP DCT ENITA DCT ETVIS DCT BUDEX/N0448F370 DCT INVED DCT TIMUR L606 ADORU UM19 IBODU |
| Aircraft | A320/M-SDE3FGHIRWY/LB1 |
Departure
| Time | N/A |
|---|---|
| Airport | Birmingham Airport (EGBB) |
Arrival
| Time | 2026-04-30 09:24 |
|---|---|
| Airport | Istanbul Sabiha Gökçen International Airport (LTFJ) |
| Time | Latitude | Longitude | Altitude | Speed | Heading |
|---|---|---|---|---|---|
| 2026-04-30 09:06 | 41.26566 | 27.47189 | 26315 ft | 440 kts | 138° |
| 2026-04-30 09:06 | 41.24557 | 27.50253 | 25792 ft | 440 kts | 129° |
| 2026-04-30 09:06 | 41.22922 | 27.53696 | 25243 ft | 440 kts | 120° |
| 2026-04-30 09:06 | 41.21704 | 27.57418 | 24735 ft | 439 kts | 112° |
| 2026-04-30 09:07 | 41.20625 | 27.61196 | 24214 ft | 436 kts | 113° |
| 2026-04-30 09:07 | 41.19546 | 27.64942 | 23702 ft | 433 kts | 113° |
| 2026-04-30 09:07 | 41.18483 | 27.68609 | 23142 ft | 430 kts | 113° |
| 2026-04-30 09:07 | 41.17409 | 27.72295 | 22607 ft | 426 kts | 113° |
| 2026-04-30 09:08 | 41.16341 | 27.75951 | 22092 ft | 423 kts | 113° |
| 2026-04-30 09:08 | 41.15284 | 27.79572 | 21604 ft | 419 kts | 113° |
| 2026-04-30 09:08 | 41.14235 | 27.83160 | 21129 ft | 415 kts | 113° |
| 2026-04-30 09:08 | 41.13196 | 27.86718 | 20666 ft | 412 kts | 113° |
| 2026-04-30 09:09 | 41.12168 | 27.90249 | 20210 ft | 409 kts | 113° |
| 2026-04-30 09:09 | 41.11147 | 27.93749 | 19760 ft | 406 kts | 113° |
| 2026-04-30 09:09 | 41.10133 | 27.97222 | 19322 ft | 402 kts | 114° |
| 2026-04-30 09:09 | 41.09121 | 28.00671 | 18891 ft | 400 kts | 114° |
| 2026-04-30 09:10 | 41.08115 | 28.04086 | 18474 ft | 397 kts | 114° |
| 2026-04-30 09:10 | 41.07115 | 28.07479 | 18013 ft | 394 kts | 114° |
| 2026-04-30 09:10 | 41.06121 | 28.10851 | 17548 ft | 391 kts | 114° |
| 2026-04-30 09:10 | 41.04869 | 28.13989 | 17105 ft | 382 kts | 129° |
| 2026-04-30 09:11 | 41.03101 | 28.16558 | 16678 ft | 373 kts | 144° |
| 2026-04-30 09:11 | 41.01725 | 28.17869 | 16380 ft | 366 kts | 154° |
| 2026-04-30 09:11 | 40.99468 | 28.19365 | 15934 ft | 361 kts | 158° |
| 2026-04-30 09:11 | 40.97235 | 28.20864 | 15499 ft | 359 kts | 157° |
| 2026-04-30 09:12 | 40.95128 | 28.22649 | 15085 ft | 362 kts | 142° |
| 2026-04-30 09:12 | 40.93530 | 28.25221 | 14676 ft | 366 kts | 121° |
| 2026-04-30 09:12 | 40.92621 | 28.28354 | 14257 ft | 366 kts | 107° |
| 2026-04-30 09:12 | 40.91941 | 28.31589 | 13844 ft | 364 kts | 107° |
| 2026-04-30 09:13 | 40.91270 | 28.34806 | 13406 ft | 361 kts | 107° |
| 2026-04-30 09:13 | 40.90604 | 28.37998 | 12958 ft | 359 kts | 107° |
| 2026-04-30 09:13 | 40.89940 | 28.41164 | 12512 ft | 356 kts | 107° |
| 2026-04-30 09:13 | 40.89277 | 28.44307 | 12083 ft | 354 kts | 107° |
| 2026-04-30 09:14 | 40.88617 | 28.47428 | 11662 ft | 352 kts | 107° |
| 2026-04-30 09:14 | 40.87962 | 28.50526 | 11292 ft | 347 kts | 107° |
| 2026-04-30 09:14 | 40.87324 | 28.53549 | 11164 ft | 336 kts | 107° |
| 2026-04-30 09:14 | 40.86705 | 28.56469 | 11036 ft | 325 kts | 107° |
| 2026-04-30 09:15 | 40.86103 | 28.59295 | 10878 ft | 316 kts | 107° |
| 2026-04-30 09:15 | 40.85510 | 28.62066 | 10592 ft | 312 kts | 107° |
| 2026-04-30 09:15 | 40.84928 | 28.64778 | 10271 ft | 310 kts | 107° |
| 2026-04-30 09:15 | 40.84335 | 28.67547 | 9938 ft | 308 kts | 107° |
| 2026-04-30 09:16 | 40.83761 | 28.70222 | 9541 ft | 304 kts | 107° |
| 2026-04-30 09:16 | 40.83190 | 28.72893 | 8920 ft | 301 kts | 107° |
| 2026-04-30 09:16 | 40.82626 | 28.75536 | 8332 ft | 297 kts | 107° |
| 2026-04-30 09:16 | 40.82069 | 28.78143 | 7735 ft | 293 kts | 107° |
| 2026-04-30 09:17 | 40.81515 | 28.80716 | 7150 ft | 289 kts | 107° |
| 2026-04-30 09:17 | 40.80961 | 28.83287 | 6560 ft | 286 kts | 107° |
| 2026-04-30 09:17 | 40.80427 | 28.85759 | 5977 ft | 282 kts | 107° |
| 2026-04-30 09:17 | 40.79894 | 28.88224 | 5377 ft | 277 kts | 108° |
| 2026-04-30 09:18 | 40.79367 | 28.90658 | 4886 ft | 275 kts | 107° |
| 2026-04-30 09:18 | 40.78849 | 28.93056 | 4578 ft | 270 kts | 107° |
| 2026-04-30 09:18 | 40.78368 | 28.95284 | 4319 ft | 264 kts | 107° |
| 2026-04-30 09:18 | 40.77866 | 28.97605 | 4142 ft | 253 kts | 107° |
| 2026-04-30 09:19 | 40.77485 | 28.99812 | 3989 ft | 242 kts | 94° |
| 2026-04-30 09:19 | 40.77668 | 29.01970 | 3838 ft | 233 kts | 72° |
| 2026-04-30 09:19 | 40.78431 | 29.03790 | 3688 ft | 224 kts | 43° |
| 2026-04-30 09:19 | 40.79694 | 29.04960 | 3539 ft | 222 kts | 37° |
| 2026-04-30 09:20 | 40.80720 | 29.06453 | 3388 ft | 219 kts | 58° |
| 2026-04-30 09:20 | 40.81454 | 29.08207 | 3235 ft | 218 kts | 64° |
| 2026-04-30 09:20 | 40.82116 | 29.09987 | 3107 ft | 213 kts | 64° |
| 2026-04-30 09:20 | 40.82751 | 29.11708 | 3012 ft | 204 kts | 64° |
| 2026-04-30 09:21 | 40.83358 | 29.13346 | 3008 ft | 196 kts | 64° |
| 2026-04-30 09:21 | 40.83947 | 29.14935 | 3002 ft | 187 kts | 64° |
| 2026-04-30 09:21 | 40.84505 | 29.16441 | 2810 ft | 180 kts | 63° |
| 2026-04-30 09:21 | 40.85047 | 29.17903 | 2557 ft | 175 kts | 63° |
| 2026-04-30 09:22 | 40.85564 | 29.19302 | 2286 ft | 164 kts | 62° |
| 2026-04-30 09:22 | 40.86048 | 29.20611 | 2055 ft | 153 kts | 61° |
| 2026-04-30 09:22 | 40.86503 | 29.21841 | 1824 ft | 143 kts | 62° |
| 2026-04-30 09:22 | 40.86928 | 29.22991 | 1585 ft | 137 kts | 61° |
| 2026-04-30 09:23 | 40.87342 | 29.24111 | 1375 ft | 135 kts | 62° |
| 2026-04-30 09:23 | 40.87752 | 29.25220 | 1138 ft | 134 kts | 62° |
| 2026-04-30 09:23 | 40.88154 | 29.26317 | 959 ft | 132 kts | 61° |
| 2026-04-30 09:23 | 40.88564 | 29.27391 | 736 ft | 130 kts | 60° |
| 2026-04-30 09:24 | 40.88947 | 29.28467 | 527 ft | 129 kts | 61° |
| 2026-04-30 09:24 | 40.89346 | 29.29527 | 333 ft | 128 kts | 62° |
| 2026-04-30 09:24 | 40.89689 | 29.30452 | 320 ft | 90 kts | 64° |
| 2026-04-30 09:24 | 40.89878 | 29.30981 | 320 ft | 33 kts | 64° |
| 2026-04-30 09:25 | 40.89971 | 29.31178 | 319 ft | 17 kts | 49° |
| 2026-04-30 09:25 | 40.90043 | 29.31268 | 320 ft | 12 kts | 37° |
| 2026-04-30 09:25 | 40.90086 | 29.31307 | 321 ft | 6 kts | 34° |
| 2026-04-30 09:25 | 40.90128 | 29.31344 | 321 ft | 8 kts | 34° |
| 2026-04-30 09:26 | 40.90182 | 29.31392 | 319 ft | 11 kts | 33° |
| 2026-04-30 09:26 | 40.90203 | 29.31411 | 321 ft | 11 kts | 34° |